createdAt,value
2023-04-15T00:00:01.221Z,40.90
2023-04-15T00:02:29.849Z,40.76
2023-04-15T00:04:58.032Z,40.92
2023-04-15T00:07:26.250Z,40.75
2023-04-15T00:09:56.480Z,40.82
2023-04-15T00:12:27.412Z,40.77
2023-04-15T00:14:57.133Z,40.77
2023-04-15T00:17:25.198Z,40.83
2023-04-15T00:19:53.356Z,40.70
2023-04-15T00:22:21.614Z,40.99
2023-04-15T00:24:49.507Z,40.89
2023-04-15T00:27:17.480Z,40.79
2023-04-15T00:29:45.546Z,40.94
2023-04-15T00:32:13.788Z,40.95
2023-04-15T00:34:42.767Z,40.94
2023-04-15T00:37:10.966Z,40.89
2023-04-15T00:39:39.350Z,40.79
2023-04-15T00:42:07.438Z,40.84
2023-04-15T00:44:35.510Z,40.90
2023-04-15T00:47:04.095Z,40.86
2023-04-15T00:49:32.486Z,40.90
2023-04-15T00:52:00.552Z,40.92
2023-04-15T00:54:28.614Z,40.87
2023-04-15T00:56:56.689Z,40.86
2023-04-15T00:59:24.767Z,40.91
2023-04-15T01:01:52.911Z,40.98
2023-04-15T01:04:21.194Z,40.76
2023-04-15T01:06:49.396Z,40.87
2023-04-15T01:09:17.981Z,41.07
2023-04-15T01:11:46.050Z,40.95
2023-04-15T01:14:14.219Z,40.94
2023-04-15T01:16:42.602Z,40.91
2023-04-15T01:19:10.881Z,41.03
2023-04-15T01:21:39.975Z,41.01
2023-04-15T01:24:09.921Z,41.07
2023-04-15T01:26:39.319Z,40.97
2023-04-15T01:29:09.722Z,40.95
2023-04-15T01:31:37.982Z,40.98
2023-04-15T01:34:06.276Z,40.71
2023-04-15T01:36:34.406Z,41.00
2023-04-15T01:39:02.805Z,41.07
2023-04-15T01:41:31.100Z,40.98
2023-04-15T01:43:59.067Z,40.84
2023-04-15T01:46:27.173Z,40.87
2023-04-15T01:48:55.224Z,40.93
2023-04-15T01:51:23.501Z,40.97
2023-04-15T01:53:52.526Z,41.02
2023-04-15T01:56:20.479Z,41.01
2023-04-15T01:58:49.043Z,41.02
2023-04-15T02:01:19.653Z,40.97
2023-04-15T02:03:48.491Z,40.91
2023-04-15T02:06:16.837Z,41.03
2023-04-15T02:08:45.434Z,41.00
2023-04-15T02:11:13.816Z,40.94
2023-04-15T02:13:41.954Z,40.95
2023-04-15T02:16:19.204Z,41.07
2023-04-15T02:18:47.652Z,40.95
2023-04-15T02:21:15.713Z,40.89
2023-04-15T02:23:44.212Z,40.95
2023-04-15T02:26:14.928Z,41.05
2023-04-15T02:28:43.006Z,40.93
2023-04-15T02:31:11.186Z,40.93
2023-04-15T02:33:39.246Z,40.88
2023-04-15T02:36:08.564Z,40.93
2023-04-15T02:38:38.298Z,40.87
2023-04-15T02:41:06.284Z,41.01
2023-04-15T02:43:35.632Z,41.00
2023-04-15T02:46:04.154Z,40.91
2023-04-15T02:48:32.620Z,40.99
2023-04-15T02:51:19.917Z,40.97
2023-04-15T02:53:49.011Z,40.94
2023-04-15T02:56:17.584Z,40.94
2023-04-15T02:58:50.848Z,41.03
2023-04-15T03:01:20.735Z,41.07
2023-04-15T03:03:49.403Z,41.11
2023-04-15T03:06:17.670Z,41.07
2023-04-15T03:08:45.810Z,41.14
2023-04-15T03:11:15.351Z,41.15
2023-04-15T03:13:43.792Z,41.36
2023-04-15T03:16:21.365Z,41.40
2023-04-15T03:18:49.607Z,41.41
2023-04-15T03:21:18.156Z,41.41
2023-04-15T03:23:48.919Z,41.42
2023-04-15T03:26:27.737Z,41.50
2023-04-15T03:28:56.629Z,41.57
2023-04-15T03:31:24.844Z,41.66
2023-04-15T03:33:53.076Z,41.69
2023-04-15T03:36:21.356Z,41.72
2023-04-15T03:38:50.216Z,41.56
2023-04-15T03:41:18.415Z,41.76
2023-04-15T03:43:46.500Z,41.71
2023-04-15T03:46:14.683Z,41.63
2023-04-15T03:48:42.628Z,41.81
2023-04-15T03:51:10.984Z,41.77
2023-04-15T03:53:38.984Z,41.84
2023-04-15T03:56:07.530Z,41.82
2023-04-15T03:58:36.043Z,41.80
2023-04-15T04:01:03.972Z,41.85
2023-04-15T04:03:32.386Z,41.75
2023-04-15T04:06:00.676Z,41.73
2023-04-15T04:08:28.750Z,41.69
2023-04-15T04:10:57.285Z,41.58
2023-04-15T04:13:25.526Z,41.66
2023-04-15T04:15:53.721Z,41.69
2023-04-15T04:18:21.929Z,41.46
2023-04-15T04:20:50.026Z,41.57
2023-04-15T04:23:17.993Z,41.50
2023-04-15T04:25:46.376Z,41.31
2023-04-15T04:28:14.435Z,41.16
2023-04-15T04:30:42.521Z,41.14
2023-04-15T04:33:11.403Z,41.07
2023-04-15T04:35:39.794Z,40.96
2023-04-15T04:38:07.672Z,41.01
2023-04-15T04:40:35.830Z,40.69
2023-04-15T04:43:04.004Z,40.65
2023-04-15T04:45:32.085Z,40.52
2023-04-15T04:48:00.294Z,40.45
2023-04-15T04:50:28.541Z,40.34
2023-04-15T04:52:56.589Z,40.07
2023-04-15T04:55:24.668Z,40.00
2023-04-15T04:57:52.851Z,39.94
2023-04-15T05:00:21.305Z,40.08
2023-04-15T05:02:49.475Z,39.73
2023-04-15T05:05:17.978Z,39.54
2023-04-15T05:07:46.123Z,39.48
2023-04-15T05:10:15.432Z,39.53
2023-04-15T05:12:43.784Z,39.33
2023-04-15T05:15:12.319Z,39.31
2023-04-15T05:17:40.433Z,39.14
2023-04-15T05:20:09.873Z,39.19
2023-04-15T05:22:37.855Z,39.03
2023-04-15T05:25:06.556Z,38.92
2023-04-15T05:27:34.810Z,38.76
2023-04-15T05:30:02.989Z,38.69
2023-04-15T05:32:31.421Z,38.76
2023-04-15T05:34:59.492Z,38.80
2023-04-15T05:37:27.436Z,38.43
2023-04-15T05:39:55.485Z,38.53
2023-04-15T05:42:23.674Z,38.49
2023-04-15T05:44:52.077Z,38.26
2023-04-15T05:47:20.128Z,38.29
2023-04-15T05:49:48.191Z,38.12
2023-04-15T05:52:16.890Z,38.22
2023-04-15T05:54:45.043Z,38.12
2023-04-15T05:57:13.130Z,37.96
2023-04-15T05:59:42.312Z,37.95
2023-04-15T06:02:10.656Z,37.77
2023-04-15T06:04:39.467Z,37.72
2023-04-15T06:07:07.656Z,37.65
2023-04-15T06:09:36.366Z,37.75
2023-04-15T06:12:04.835Z,37.79
2023-04-15T06:14:32.816Z,37.59
2023-04-15T06:17:01.406Z,37.62
2023-04-15T06:19:29.765Z,37.75
2023-04-15T06:21:58.458Z,37.64
2023-04-15T06:24:26.382Z,37.61
2023-04-15T06:26:54.413Z,37.56
2023-04-15T06:29:22.364Z,37.57
2023-04-15T06:31:50.566Z,37.53
2023-04-15T06:34:18.600Z,37.60
2023-04-15T06:36:46.772Z,37.53
2023-04-15T06:39:14.848Z,37.55
2023-04-15T06:41:43.335Z,37.44
2023-04-15T06:44:11.606Z,37.29
2023-04-15T06:46:39.673Z,37.38
2023-04-15T06:49:08.364Z,37.39
2023-04-15T06:51:36.933Z,37.13
2023-04-15T06:54:06.336Z,37.11
2023-04-15T06:56:34.417Z,37.11
2023-04-15T06:59:02.682Z,37.34
2023-04-15T07:01:31.088Z,37.02
2023-04-15T07:03:59.250Z,37.05
2023-04-15T07:06:27.934Z,37.03
2023-04-15T07:08:55.846Z,37.19
2023-04-15T07:11:23.877Z,37.11
2023-04-15T07:13:51.844Z,37.03
2023-04-15T07:16:19.942Z,37.06
2023-04-15T07:18:48.210Z,37.12
2023-04-15T07:21:16.127Z,37.00
2023-04-15T07:23:44.133Z,37.03
2023-04-15T07:26:12.513Z,37.01
2023-04-15T07:28:40.653Z,36.96
2023-04-15T07:31:09.225Z,36.89
2023-04-15T07:33:38.120Z,37.00
2023-04-15T07:36:06.536Z,36.70
2023-04-15T07:38:34.499Z,36.67
2023-04-15T07:41:02.794Z,36.71
2023-04-15T07:43:30.704Z,36.56
2023-04-15T07:45:58.750Z,36.62
2023-04-15T07:48:27.189Z,36.45
2023-04-15T07:50:55.166Z,36.43
2023-04-15T07:53:23.186Z,36.41
2023-04-15T07:55:51.046Z,36.33
2023-04-15T07:58:19.199Z,36.17
2023-04-15T08:00:47.454Z,36.22
2023-04-15T08:03:15.827Z,36.10
2023-04-15T08:05:44.929Z,36.15
2023-04-15T08:08:13.001Z,36.08
2023-04-15T08:10:41.066Z,35.96
2023-04-15T08:13:09.359Z,36.04
2023-04-15T08:15:37.530Z,35.93
2023-04-15T08:18:05.602Z,36.02
2023-04-15T08:20:34.085Z,35.82
2023-04-15T08:23:02.362Z,35.89
2023-04-15T08:25:30.433Z,35.74
2023-04-15T08:27:58.506Z,35.84
2023-04-15T08:30:26.436Z,35.79
2023-04-15T08:32:54.581Z,35.73
2023-04-15T08:35:23.230Z,35.77
2023-04-15T08:40:19.529Z,35.62
2023-04-15T08:42:49.290Z,35.55
2023-04-15T08:45:17.556Z,35.45
2023-04-15T08:47:45.891Z,35.50
2023-04-15T08:50:14.009Z,35.60
2023-04-15T08:52:42.604Z,35.48
2023-04-15T08:55:10.780Z,35.47
2023-04-15T08:57:40.011Z,35.47
2023-04-15T09:00:09.491Z,35.45
2023-04-15T09:02:37.520Z,35.48
2023-04-15T09:05:07.033Z,35.54
2023-04-15T09:07:36.686Z,35.39
2023-04-15T09:10:05.489Z,35.55
2023-04-15T09:12:37.111Z,35.36
2023-04-15T09:15:05.796Z,35.48
2023-04-15T09:17:34.314Z,35.38
2023-04-15T09:20:15.552Z,35.37
2023-04-15T09:22:44.961Z,35.43
2023-04-15T09:25:18.658Z,35.33
2023-04-15T09:27:50.484Z,35.30
2023-04-15T09:30:18.895Z,35.27
2023-04-15T09:32:57.188Z,35.31
2023-04-15T09:35:26.298Z,35.27
2023-04-15T09:38:02.183Z,35.23
2023-04-15T09:40:38.455Z,34.91
2023-04-15T09:43:07.350Z,34.96
2023-04-15T09:45:36.021Z,34.90
2023-04-15T09:48:18.845Z,35.10
2023-04-15T09:50:47.305Z,34.98
2023-04-15T09:53:22.345Z,35.01
2023-04-15T09:55:54.817Z,34.64
2023-04-15T09:58:27.808Z,34.65
2023-04-15T10:00:57.227Z,34.66
2023-04-15T10:03:27.720Z,34.67
2023-04-15T10:05:57.379Z,34.73
2023-04-15T10:08:35.554Z,34.51
2023-04-15T10:11:03.734Z,34.63
2023-04-15T10:13:37.146Z,34.62
2023-04-15T10:16:11.983Z,34.50
2023-04-15T10:18:47.929Z,34.66
2023-04-15T10:21:18.885Z,34.76
2023-04-15T10:23:47.236Z,34.45
2023-04-15T10:26:15.808Z,34.65
2023-04-15T10:28:50.289Z,34.38
2023-04-15T10:31:18.778Z,34.45
2023-04-15T10:33:47.620Z,34.44
2023-04-15T10:36:16.192Z,34.51
2023-04-15T10:38:45.954Z,34.36
2023-04-15T10:41:21.043Z,34.32
2023-04-15T10:44:09.749Z,34.20
2023-04-15T10:46:39.559Z,34.29
2023-04-15T10:49:12.599Z,34.40
2023-04-15T10:51:45.784Z,34.11
2023-04-15T10:54:17.734Z,34.18
2023-04-15T10:56:45.922Z,34.39
2023-04-15T10:59:13.897Z,34.46
2023-04-15T11:02:00.268Z,34.29
2023-04-15T11:05:00.929Z,34.54
2023-04-15T11:07:35.828Z,34.37
2023-04-15T11:10:09.810Z,34.31
2023-04-15T11:12:38.051Z,34.26
2023-04-15T11:15:24.947Z,34.10
2023-04-15T11:17:53.174Z,34.09
2023-04-15T11:20:21.506Z,34.17
2023-04-15T11:22:50.820Z,34.24
2023-04-15T11:25:29.224Z,34.04
2023-04-15T11:27:58.320Z,33.91
2023-04-15T11:30:27.925Z,33.94
2023-04-15T11:32:58.407Z,33.92
2023-04-15T11:35:26.848Z,34.01
2023-04-15T11:37:55.521Z,33.79
2023-04-15T11:40:30.539Z,33.97
2023-04-15T11:43:11.610Z,33.80
2023-04-15T11:45:59.301Z,33.82
2023-04-15T11:48:34.895Z,33.93
2023-04-15T11:51:07.081Z,33.80
2023-04-15T11:53:46.332Z,33.76
2023-04-15T11:56:32.432Z,33.82
2023-04-15T11:59:00.493Z,33.84
2023-04-15T12:01:47.869Z,33.90
2023-04-15T12:19:42.501Z,34.13
2023-04-15T12:22:15.374Z,34.02
2023-04-15T12:24:44.377Z,33.91
2023-04-15T12:27:12.996Z,34.03
2023-04-15T12:29:43.292Z,33.88
2023-04-15T12:32:11.468Z,34.13
2023-04-15T12:34:52.250Z,34.00
2023-04-15T12:37:20.309Z,33.88
2023-04-15T12:39:49.899Z,34.10
2023-04-15T12:42:18.383Z,34.06
2023-04-15T12:44:47.057Z,33.96
2023-04-15T12:54:56.144Z,33.94
2023-04-15T12:57:24.240Z,34.14
2023-04-15T12:59:52.313Z,34.20
2023-04-15T13:02:21.315Z,34.16
2023-04-15T13:04:49.432Z,33.82
2023-04-15T13:07:17.755Z,34.27
2023-04-15T13:09:45.818Z,34.07
2023-04-15T13:19:55.168Z,34.04
2023-04-15T13:22:23.275Z,34.05
2023-04-15T13:24:51.764Z,33.96
2023-04-15T13:27:19.740Z,33.94
2023-04-15T13:29:47.802Z,33.97
2023-04-15T13:32:15.875Z,34.02
2023-04-15T13:34:44.035Z,33.92
2023-04-15T13:37:12.220Z,34.15
2023-04-15T13:39:40.717Z,34.11
2023-04-15T13:42:08.982Z,33.78
2023-04-15T13:44:36.931Z,34.06
2023-04-15T13:47:05.133Z,33.84
2023-04-15T13:49:33.205Z,34.11
2023-04-15T13:52:01.261Z,34.11
2023-04-15T13:54:37.489Z,34.16
2023-04-15T13:57:06.666Z,34.15
2023-04-15T13:59:37.682Z,34.15
2023-04-15T14:02:05.810Z,34.26
2023-04-15T14:04:34.026Z,34.18
2023-04-15T14:07:03.400Z,34.15
2023-04-15T14:12:02.428Z,34.17
2023-04-15T14:14:30.582Z,33.96
2023-04-15T14:16:59.012Z,33.97
2023-04-15T14:19:27.262Z,34.03
2023-04-15T14:21:55.742Z,33.95
2023-04-15T14:24:23.704Z,34.22
2023-04-15T14:26:51.776Z,34.21
2023-04-15T14:29:20.359Z,34.17
2023-04-15T14:32:04.018Z,34.37
2023-04-15T14:34:37.935Z,34.31
2023-04-15T14:37:05.948Z,34.41
2023-04-15T14:39:34.163Z,34.66
2023-04-15T14:42:02.404Z,34.58
2023-04-15T14:46:59.605Z,34.65
2023-04-15T14:49:27.851Z,34.50
2023-04-15T14:51:55.805Z,34.71
2023-04-15T14:54:23.928Z,34.72
2023-04-15T14:56:52.101Z,34.97
2023-04-15T14:59:20.070Z,34.81
2023-04-15T15:01:48.187Z,34.91
2023-04-15T15:04:16.493Z,35.04
2023-04-15T15:06:45.121Z,35.10
2023-04-15T15:09:14.302Z,35.18
2023-04-15T15:11:42.199Z,35.27
2023-04-15T15:14:10.352Z,35.06
2023-04-15T15:16:38.405Z,35.32
2023-04-15T15:19:06.482Z,35.38
2023-04-15T15:21:35.379Z,35.48
2023-04-15T15:24:03.651Z,35.59
2023-04-15T15:26:32.029Z,35.58
2023-04-15T15:29:00.145Z,35.53
2023-04-15T15:31:28.134Z,35.70
2023-04-15T15:33:56.246Z,35.69
2023-04-15T15:36:24.077Z,35.75
2023-04-15T15:38:52.101Z,35.81
2023-04-15T15:41:20.105Z,35.98
2023-04-15T15:43:48.121Z,35.93
2023-04-15T15:46:16.436Z,35.84
2023-04-15T15:48:44.464Z,35.99
2023-04-15T15:51:12.824Z,35.99
2023-04-15T15:53:40.926Z,35.82
2023-04-15T15:56:08.955Z,35.86
2023-04-15T15:58:37.057Z,36.06
2023-04-15T16:01:05.199Z,35.96
2023-04-15T16:03:33.579Z,35.95
2023-04-15T16:06:01.998Z,36.01
2023-04-15T16:08:30.059Z,36.16
2023-04-15T16:10:58.220Z,36.06
2023-04-15T16:13:26.446Z,36.34
2023-04-15T16:15:54.728Z,36.25
2023-04-15T16:18:22.756Z,36.18
2023-04-15T16:20:51.169Z,36.16
2023-04-15T16:23:19.662Z,36.22
2023-04-15T16:25:48.413Z,36.23
2023-04-15T16:28:26.309Z,36.38
2023-04-15T16:30:55.715Z,36.13
2023-04-15T16:33:23.636Z,36.27
2023-04-15T16:35:51.761Z,36.33
2023-04-15T16:38:19.835Z,36.42
2023-04-15T16:40:48.003Z,36.36
2023-04-15T16:43:16.178Z,36.27
2023-04-15T16:45:45.579Z,36.34
2023-04-15T16:48:13.753Z,36.31
2023-04-15T16:50:41.833Z,36.38
2023-04-15T16:53:09.914Z,36.43
2023-04-15T16:55:37.928Z,36.51
2023-04-15T16:58:08.350Z,36.57
2023-04-15T17:00:37.254Z,36.60
2023-04-15T17:03:06.164Z,36.68
2023-04-15T17:05:34.772Z,36.58
2023-04-15T17:08:02.728Z,36.67
2023-04-15T17:10:31.427Z,36.73
2023-04-15T17:15:32.491Z,36.83
2023-04-15T17:18:00.701Z,37.07
2023-04-15T17:20:28.831Z,36.93
2023-04-15T17:22:56.910Z,37.15
2023-04-15T17:25:24.970Z,36.95
2023-04-15T17:27:53.146Z,37.14
2023-04-15T17:30:21.624Z,37.16
2023-04-15T17:32:49.609Z,37.17
2023-04-15T17:35:18.591Z,37.26
2023-04-15T17:37:46.541Z,37.31
2023-04-15T17:40:15.045Z,37.46
2023-04-15T17:42:43.009Z,37.46
2023-04-15T17:45:11.695Z,37.47
2023-04-15T17:47:39.721Z,37.61
2023-04-15T17:50:09.469Z,37.74
2023-04-15T17:52:37.442Z,37.60
2023-04-15T17:57:39.935Z,37.75
2023-04-15T18:00:10.298Z,37.90
2023-04-15T18:02:41.466Z,37.88
2023-04-15T18:05:10.566Z,37.95
2023-04-15T18:07:38.777Z,38.05
2023-04-15T18:10:08.289Z,38.03
2023-04-15T18:12:36.248Z,38.11
2023-04-15T18:15:06.467Z,38.24
2023-04-15T18:17:34.553Z,38.44
2023-04-15T18:20:02.929Z,38.47
2023-04-15T18:22:30.898Z,38.59
2023-04-15T18:25:04.618Z,38.70
2023-04-15T18:27:33.600Z,38.67
2023-04-15T18:30:01.577Z,38.77
2023-04-15T18:32:32.866Z,38.80
2023-04-15T18:35:01.308Z,39.05
2023-04-15T18:37:32.030Z,39.00
2023-04-15T18:40:00.408Z,39.17
2023-04-15T18:42:28.479Z,39.02
2023-04-15T18:44:56.479Z,39.08
2023-04-15T18:47:27.112Z,39.05
2023-04-15T18:49:55.488Z,39.13
2023-04-15T18:52:23.737Z,39.16
2023-04-15T18:54:51.807Z,39.27
2023-04-15T18:57:24.522Z,39.12
2023-04-15T19:00:02.680Z,39.17
2023-04-15T19:02:30.734Z,39.01
2023-04-15T19:04:58.946Z,39.22
2023-04-15T19:07:27.230Z,39.15
2023-04-15T19:09:55.482Z,39.04
2023-04-15T19:12:23.661Z,39.10
2023-04-15T19:14:51.739Z,38.94
2023-04-15T19:17:20.168Z,38.92
2023-04-15T19:19:48.218Z,38.89
2023-04-15T19:22:16.642Z,38.91
2023-04-15T19:24:44.868Z,38.81
2023-04-15T19:27:12.916Z,38.83
2023-04-15T19:29:41.209Z,38.86
2023-04-15T19:32:09.264Z,38.73
2023-04-15T19:34:37.231Z,38.69
2023-04-15T19:37:05.312Z,38.68
2023-04-15T19:39:33.969Z,38.76
2023-04-15T19:42:02.890Z,38.68
2023-04-15T19:44:30.929Z,38.62
2023-04-15T19:46:59.235Z,38.67
2023-04-15T19:49:27.306Z,38.63
2023-04-15T19:51:56.098Z,38.58
2023-04-15T19:54:24.134Z,38.45
2023-04-15T19:56:52.346Z,38.61
2023-04-15T19:59:20.406Z,38.50
2023-04-15T20:01:48.872Z,38.48
2023-04-15T20:04:17.070Z,38.51
2023-04-15T20:06:45.859Z,38.27
2023-04-15T20:09:14.205Z,38.36
2023-04-15T20:12:10.065Z,38.34
2023-04-15T20:14:31.171Z,38.41
2023-04-15T20:16:59.344Z,38.25
2023-04-15T20:19:27.419Z,38.40
2023-04-15T20:21:55.491Z,38.39
2023-04-15T20:24:24.395Z,38.47
2023-04-15T20:26:52.445Z,38.38
2023-04-15T20:29:20.390Z,38.35
2023-04-15T20:31:48.734Z,38.22
2023-04-15T20:34:16.868Z,38.42
2023-04-15T20:36:44.741Z,38.31
2023-04-15T20:39:12.689Z,38.25
2023-04-15T20:41:40.771Z,38.11
2023-04-15T20:44:08.849Z,37.96
2023-04-15T20:46:37.073Z,38.32
2023-04-15T20:49:05.701Z,38.14
2023-04-15T20:51:37.874Z,38.22
2023-04-15T20:54:06.333Z,38.22
2023-04-15T20:56:34.430Z,38.18
2023-04-15T20:59:02.628Z,38.22
2023-04-15T21:01:30.991Z,38.21
2023-04-15T21:03:59.616Z,38.28
2023-04-15T21:06:27.736Z,38.22
2023-04-15T21:08:55.924Z,38.17
2023-04-15T21:11:40.963Z,38.28
2023-04-15T21:14:12.546Z,38.23
2023-04-15T21:16:40.865Z,38.26
2023-04-15T21:19:09.593Z,38.35
2023-04-15T21:21:37.581Z,38.23
2023-04-15T21:24:07.882Z,38.34
2023-04-15T21:26:36.479Z,38.25
2023-04-15T21:29:04.685Z,38.20
2023-04-15T21:31:33.102Z,38.31
2023-04-15T21:34:01.313Z,38.24
2023-04-15T21:36:29.712Z,38.38
2023-04-15T21:38:57.972Z,38.36
2023-04-15T21:41:26.655Z,38.39
2023-04-15T21:43:54.763Z,38.35
2023-04-15T21:46:25.684Z,38.42
2023-04-15T21:49:00.609Z,38.47
2023-04-15T21:51:28.767Z,38.55
2023-04-15T21:53:56.939Z,38.59
2023-04-15T21:56:25.544Z,38.49
2023-04-15T21:58:56.526Z,38.43
2023-04-15T22:01:26.483Z,38.44
2023-04-15T22:03:54.826Z,38.56
2023-04-15T22:06:23.145Z,38.54
2023-04-15T22:09:11.942Z,38.56
2023-04-15T22:11:39.455Z,38.65
2023-04-15T22:14:07.439Z,38.63
2023-04-15T22:16:35.409Z,38.69
2023-04-15T22:19:03.553Z,38.69
2023-04-15T22:21:32.042Z,38.76
2023-04-15T22:24:32.075Z,38.57
2023-04-15T22:26:48.225Z,38.63
2023-04-15T22:29:16.335Z,38.85
2023-04-15T22:31:44.575Z,38.75
2023-04-15T22:34:14.937Z,38.89
2023-04-15T22:36:43.132Z,38.91
2023-04-15T22:39:11.285Z,38.85
2023-04-15T22:41:39.563Z,38.86
2023-04-15T22:44:07.639Z,39.07
2023-04-15T22:46:35.656Z,38.89
2023-04-15T22:49:07.079Z,39.02
2023-04-15T22:51:36.716Z,38.99
2023-04-15T22:54:04.731Z,39.07
2023-04-15T22:56:32.859Z,39.22
2023-04-15T22:59:01.078Z,38.95
2023-04-15T23:01:29.272Z,38.99
2023-04-15T23:04:07.328Z,39.22
2023-04-15T23:06:45.472Z,39.17
2023-04-15T23:09:13.649Z,39.16
2023-04-15T23:11:42.026Z,39.15
2023-04-15T23:14:10.210Z,39.23
2023-04-15T23:16:38.188Z,39.29
2023-04-15T23:19:06.474Z,39.23
2023-04-15T23:21:34.617Z,39.21
2023-04-15T23:24:02.609Z,39.28
2023-04-15T23:26:31.377Z,39.19
2023-04-15T23:28:59.342Z,39.34
2023-04-15T23:31:27.261Z,39.35
2023-04-15T23:33:55.388Z,39.35
2023-04-15T23:36:23.449Z,39.40
2023-04-15T23:38:51.392Z,39.25
2023-04-15T23:41:19.305Z,39.41
2023-04-15T23:43:47.364Z,39.43
2023-04-15T23:46:15.783Z,39.58
2023-04-15T23:48:43.916Z,39.46
2023-04-15T23:51:11.980Z,39.58
2023-04-15T23:53:40.078Z,39.43
2023-04-15T23:56:08.226Z,39.47
2023-04-15T23:58:36.682Z,39.45
